createdAt,value
2023-02-05T00:01:17.340Z,39.50
2023-02-05T00:03:59.742Z,40.50
2023-02-05T00:06:48.757Z,40.33
2023-02-05T00:09:30.632Z,40.22
2023-02-05T00:12:19.339Z,41.83
2023-02-05T00:15:08.397Z,41.30
2023-02-05T00:17:56.733Z,43.35
2023-02-05T00:20:39.383Z,42.63
2023-02-05T00:23:21.522Z,43.88
2023-02-05T00:26:10.369Z,44.17
2023-02-05T00:28:59.384Z,43.95
2023-02-05T00:31:48.374Z,44.33
2023-02-05T00:34:30.576Z,48.20
2023-02-05T00:37:19.325Z,48.25
2023-02-05T00:40:01.651Z,52.20
2023-02-05T00:42:50.391Z,54.00
2023-02-05T00:45:39.660Z,58.17
2023-02-05T00:48:21.435Z,55.08
2023-02-05T00:51:03.847Z,56.17
2023-02-05T00:53:52.421Z,56.97
2023-02-05T00:56:34.568Z,56.90
2023-02-05T00:59:24.005Z,58.08
2023-02-05T01:02:14.448Z,57.40
2023-02-05T01:04:57.296Z,55.45
2023-02-05T01:07:46.441Z,57.20
2023-02-05T01:10:28.680Z,56.28
2023-02-05T01:13:18.824Z,59.00
2023-02-05T01:16:01.909Z,57.72
2023-02-05T01:18:56.369Z,56.33
2023-02-05T01:21:45.765Z,56.25
2023-02-05T01:24:28.384Z,56.42
2023-02-05T01:27:10.664Z,57.08
2023-02-05T01:29:59.447Z,57.83
2023-02-05T01:32:48.622Z,57.30
2023-02-05T01:35:31.596Z,54.22
2023-02-05T01:38:21.095Z,56.97
2023-02-05T01:41:04.423Z,54.13
2023-02-05T01:44:14.016Z,57.83
2023-02-05T01:47:04.494Z,56.38
2023-02-05T01:49:52.584Z,57.40
2023-02-05T01:52:35.424Z,66.30
2023-02-05T01:55:24.317Z,66.90
2023-02-05T01:58:08.716Z,69.32
2023-02-05T02:00:57.329Z,71.90
2023-02-05T02:03:39.677Z,69.78
2023-02-05T02:06:29.431Z,71.27
2023-02-05T02:09:14.631Z,70.32
2023-02-05T02:12:05.333Z,68.65
2023-02-05T02:14:50.712Z,69.22
2023-02-05T02:17:50.356Z,70.90
2023-02-05T02:20:43.406Z,69.05
2023-02-05T02:23:54.654Z,69.60
2023-02-05T02:27:04.483Z,72.45
2023-02-05T02:30:06.660Z,71.15
2023-02-05T02:33:11.373Z,71.95
2023-02-05T02:35:53.942Z,72.88
2023-02-05T02:39:10.366Z,73.28
2023-02-05T02:42:12.644Z,71.00
2023-02-05T02:45:15.359Z,69.40
2023-02-05T02:48:05.682Z,68.47
2023-02-05T02:50:57.639Z,67.70
2023-02-05T02:53:46.665Z,63.40
2023-02-05T02:56:39.435Z,62.80
2023-02-05T02:59:32.692Z,62.65
2023-02-05T03:02:24.338Z,58.85
2023-02-05T03:05:12.600Z,56.80
2023-02-05T03:08:07.409Z,49.85
2023-02-05T03:11:03.374Z,45.95
2023-02-05T03:13:46.908Z,47.03
2023-02-05T03:16:40.684Z,45.38
2023-02-05T03:19:37.374Z,46.60
2023-02-05T03:22:26.625Z,44.28
2023-02-05T03:25:10.654Z,45.25
2023-02-05T03:28:01.733Z,41.60
2023-02-05T03:30:54.438Z,42.42
2023-02-05T03:34:04.366Z,41.75
2023-02-05T03:36:57.695Z,40.38
2023-02-05T03:40:08.399Z,39.17
2023-02-05T03:43:01.672Z,36.17
2023-02-05T03:45:55.501Z,34.90
2023-02-05T03:49:11.668Z,30.83
2023-02-05T03:52:25.343Z,31.77
2023-02-05T03:55:11.718Z,29.13
2023-02-05T03:58:12.448Z,31.17
2023-02-05T04:00:55.648Z,30.98
2023-02-05T04:03:46.467Z,31.05
2023-02-05T04:06:29.692Z,29.85
2023-02-05T04:09:19.398Z,30.30
2023-02-05T04:12:03.655Z,30.02
2023-02-05T04:14:54.395Z,31.88
2023-02-05T04:17:44.261Z,30.38
2023-02-05T04:20:34.378Z,30.00
2023-02-05T04:23:25.322Z,30.15
2023-02-05T04:26:14.676Z,29.88
2023-02-05T04:29:06.359Z,29.83
2023-02-05T04:31:53.769Z,28.88
2023-02-05T04:34:42.352Z,26.00
2023-02-05T04:37:32.345Z,26.33
2023-02-05T04:40:22.348Z,23.35
2023-02-05T04:43:04.649Z,23.33
2023-02-05T04:45:53.349Z,23.67
2023-02-05T04:48:42.666Z,23.77
2023-02-05T04:51:25.350Z,24.85
2023-02-05T04:54:07.562Z,24.60
2023-02-05T04:56:56.310Z,24.20
2023-02-05T04:59:38.607Z,20.60
2023-02-05T05:02:27.491Z,22.70
2023-02-05T05:05:10.010Z,24.23
2023-02-05T05:08:00.395Z,23.55
2023-02-05T05:10:49.712Z,24.25
2023-02-05T05:13:32.554Z,25.02
2023-02-05T05:16:14.679Z,25.98
2023-02-05T05:19:09.313Z,26.40
2023-02-05T05:21:57.612Z,27.45
2023-02-05T05:24:40.342Z,27.52
2023-02-05T05:27:24.209Z,24.30
2023-02-05T05:30:13.349Z,25.85
2023-02-05T05:32:55.526Z,26.15
2023-02-05T05:35:44.400Z,24.85
2023-02-05T05:38:26.570Z,26.33
2023-02-05T05:41:33.420Z,25.95
2023-02-05T05:44:22.756Z,26.23
2023-02-05T05:47:05.379Z,29.33
2023-02-05T05:49:47.869Z,28.33
2023-02-05T05:52:36.317Z,26.45
2023-02-05T05:55:25.687Z,30.65
2023-02-05T05:58:08.379Z,26.17
2023-02-05T06:00:58.749Z,26.08
2023-02-05T06:03:40.702Z,22.33
2023-02-05T06:06:29.337Z,23.70
2023-02-05T06:09:11.648Z,23.60
2023-02-05T06:12:00.281Z,24.83
2023-02-05T06:14:42.635Z,26.50
2023-02-05T06:17:31.337Z,21.63
2023-02-05T06:20:13.721Z,23.42
2023-02-05T06:23:02.382Z,22.73
2023-02-05T06:25:44.625Z,18.45
2023-02-05T06:28:33.351Z,14.20
2023-02-05T06:31:15.743Z,12.88
2023-02-05T06:34:04.450Z,12.70
2023-02-05T06:36:46.551Z,14.13
2023-02-05T06:39:35.368Z,11.88
2023-02-05T06:42:18.588Z,11.35
2023-02-05T06:45:07.288Z,11.52
2023-02-05T06:47:49.750Z,12.63
2023-02-05T06:50:39.308Z,12.10
2023-02-05T06:53:21.755Z,11.50
2023-02-05T06:56:11.344Z,10.97
2023-02-05T06:58:53.667Z,11.23
2023-02-05T07:01:43.437Z,10.43
2023-02-05T07:04:25.640Z,13.38
2023-02-05T07:07:14.363Z,13.13
2023-02-05T07:09:57.755Z,9.98
2023-02-05T07:12:46.341Z,10.27
2023-02-05T07:15:35.644Z,10.00
2023-02-05T07:18:17.600Z,12.52
2023-02-05T07:21:06.435Z,10.77
2023-02-05T07:23:55.572Z,8.32
2023-02-05T07:26:37.390Z,10.55
2023-02-05T07:29:19.534Z,10.27
2023-02-05T07:32:08.393Z,10.35
2023-02-05T07:34:56.712Z,9.80
2023-02-05T07:37:39.450Z,9.65
2023-02-05T07:40:28.727Z,8.80
2023-02-05T07:43:10.327Z,8.70
2023-02-05T07:46:04.138Z,8.00
2023-02-05T07:48:53.685Z,8.57
2023-02-05T07:51:41.559Z,6.95
2023-02-05T07:54:24.438Z,7.03
2023-02-05T07:57:12.734Z,7.18
2023-02-05T07:59:55.373Z,9.88
2023-02-05T08:02:54.675Z,9.98
2023-02-05T08:05:36.942Z,11.60
2023-02-05T08:08:26.368Z,10.52
2023-02-05T08:11:11.639Z,9.80
2023-02-05T08:14:00.330Z,11.73
2023-02-05T08:16:49.319Z,11.95
2023-02-05T08:19:31.607Z,10.50
2023-02-05T08:22:20.337Z,9.68
2023-02-05T08:25:08.695Z,10.50
2023-02-05T08:27:51.422Z,9.82
2023-02-05T08:30:39.865Z,8.63
2023-02-05T08:33:22.325Z,9.02
2023-02-05T08:36:11.790Z,10.30
2023-02-05T08:38:53.406Z,8.63
2023-02-05T08:41:38.420Z,8.45
2023-02-05T08:44:27.412Z,8.70
2023-02-05T08:47:16.594Z,9.00
2023-02-05T08:49:59.394Z,9.60
2023-02-05T08:52:48.637Z,8.20
2023-02-05T08:55:31.476Z,10.10
2023-02-05T08:58:20.757Z,9.43
2023-02-05T09:01:10.371Z,9.23
2023-02-05T09:03:58.619Z,10.20
2023-02-05T09:06:41.639Z,9.80
2023-02-05T09:09:31.627Z,9.85
2023-02-05T09:12:14.368Z,8.95
2023-02-05T09:15:02.577Z,9.55
2023-02-05T09:17:45.342Z,8.75
2023-02-05T09:20:33.717Z,8.40
2023-02-05T09:23:18.434Z,7.03
2023-02-05T09:26:08.292Z,9.05
2023-02-05T09:28:51.418Z,7.85
2023-02-05T09:31:40.680Z,7.35
2023-02-05T09:34:23.328Z,8.57
2023-02-05T09:37:05.488Z,10.07
2023-02-05T09:43:05.684Z,8.73
2023-02-05T09:46:10.357Z,10.43
2023-02-05T09:49:25.648Z,10.02
2023-02-05T09:52:20.392Z,9.20
2023-02-05T09:55:32.916Z,10.80
2023-02-05T09:58:23.337Z,9.35
2023-02-05T10:01:20.834Z,9.85
2023-02-05T10:04:17.445Z,9.45
2023-02-05T10:07:27.234Z,10.45
2023-02-05T10:10:31.384Z,10.35
2023-02-05T10:13:37.791Z,9.13
2023-02-05T10:16:33.324Z,10.90
2023-02-05T10:20:05.521Z,10.50
2023-02-05T10:22:59.279Z,11.73
2023-02-05T10:25:51.279Z,12.07
2023-02-05T10:29:06.286Z,11.63
2023-02-05T10:31:50.878Z,12.40
2023-02-05T10:34:54.328Z,12.45
2023-02-05T10:37:51.541Z,12.75
2023-02-05T10:40:51.486Z,11.23
2023-02-05T10:43:45.618Z,11.75
2023-02-05T10:46:40.412Z,11.45
2023-02-05T10:49:40.688Z,11.50
2023-02-05T10:52:29.370Z,12.18
2023-02-05T10:55:12.981Z,10.50
2023-02-05T10:58:02.302Z,11.43
2023-02-05T11:00:44.820Z,11.48
2023-02-05T11:03:33.332Z,12.38
2023-02-05T11:06:18.700Z,11.93
2023-02-05T11:09:07.354Z,10.18
2023-02-05T11:11:49.642Z,12.35
2023-02-05T11:14:45.667Z,12.63
2023-02-05T11:17:34.866Z,12.35
2023-02-05T11:20:32.505Z,12.40
2023-02-05T11:23:32.062Z,10.27
2023-02-05T11:26:25.324Z,10.52
2023-02-05T11:29:32.586Z,11.40
2023-02-05T11:32:31.404Z,10.50
2023-02-05T11:35:27.842Z,13.77
2023-02-05T11:38:18.281Z,11.55
2023-02-05T11:41:04.662Z,10.10
2023-02-05T11:44:01.387Z,13.27
2023-02-05T11:47:00.077Z,11.70
2023-02-05T11:49:46.353Z,14.23
2023-02-05T11:52:34.411Z,12.43
2023-02-05T11:55:48.358Z,12.13
2023-02-05T11:58:39.797Z,10.68
2023-02-05T12:01:33.365Z,11.55
2023-02-05T12:04:21.441Z,12.57
2023-02-05T12:07:17.440Z,11.52
2023-02-05T12:10:06.786Z,11.93
2023-02-05T12:13:30.332Z,10.30
2023-02-05T12:16:26.675Z,12.07
2023-02-05T12:19:30.962Z,10.15
2023-02-05T12:22:18.560Z,12.73
2023-02-05T12:25:14.395Z,10.20
2023-02-05T12:28:13.655Z,10.30
2023-02-05T12:31:16.303Z,11.20
2023-02-05T12:34:14.264Z,12.07
2023-02-05T12:37:37.131Z,10.68
2023-02-05T12:40:40.274Z,12.02
2023-02-05T12:43:48.727Z,10.70
2023-02-05T12:46:52.365Z,11.13
2023-02-05T12:49:58.592Z,10.95
2023-02-05T12:52:54.287Z,11.85
2023-02-05T12:55:55.543Z,11.18
2023-02-05T12:58:46.341Z,11.23
2023-02-05T13:01:53.753Z,11.65
2023-02-05T13:04:40.331Z,10.98
2023-02-05T13:07:42.607Z,12.13
2023-02-05T13:10:36.336Z,11.23
2023-02-05T13:13:40.611Z,11.77
2023-02-05T13:16:27.329Z,13.20
2023-02-05T13:19:42.266Z,11.68
2023-02-05T13:22:58.326Z,13.82
2023-02-05T13:26:11.317Z,11.80
2023-02-05T13:29:13.677Z,12.52
2023-02-05T13:32:10.601Z,12.35
2023-02-05T13:35:06.300Z,14.80
2023-02-05T13:38:33.915Z,13.05
2023-02-05T13:41:26.353Z,13.93
2023-02-05T13:44:20.660Z,12.43
2023-02-05T13:47:36.377Z,13.43
2023-02-05T13:50:37.811Z,13.32
2023-02-05T13:53:52.344Z,13.65
2023-02-05T13:56:56.647Z,13.75
2023-02-05T13:59:51.262Z,14.45
2023-02-05T14:02:50.485Z,14.57
2023-02-05T14:05:45.358Z,15.52
2023-02-05T14:08:32.815Z,15.95
2023-02-05T14:11:21.317Z,16.40
2023-02-05T14:14:51.604Z,15.85
2023-02-05T14:17:40.357Z,17.17
2023-02-05T14:20:33.626Z,18.58
2023-02-05T14:23:54.316Z,18.55
2023-02-05T14:26:54.652Z,19.75
2023-02-05T14:29:49.336Z,18.85
2023-02-05T14:32:37.743Z,20.60
2023-02-05T14:35:51.361Z,19.95
2023-02-05T14:38:41.578Z,19.35
2023-02-05T14:41:27.350Z,19.67
2023-02-05T14:44:41.374Z,18.60
2023-02-05T14:47:28.088Z,17.85
2023-02-05T14:50:26.258Z,18.25
2023-02-05T14:53:11.424Z,18.20
2023-02-05T14:55:57.698Z,19.38
2023-02-05T14:58:53.342Z,20.40
2023-02-05T15:01:38.698Z,19.10
2023-02-05T15:04:51.300Z,19.48
2023-02-05T15:07:36.589Z,20.67
2023-02-05T15:10:31.351Z,22.40
2023-02-05T15:13:26.525Z,22.00
2023-02-05T15:16:25.347Z,21.10
2023-02-05T15:19:23.685Z,22.20
2023-02-05T15:22:07.724Z,20.70
2023-02-05T15:24:58.317Z,19.17
2023-02-05T15:27:48.289Z,19.60
2023-02-05T15:30:41.687Z,20.33
2023-02-05T15:33:46.635Z,19.95
2023-02-05T15:36:40.389Z,21.60
2023-02-05T15:40:16.596Z,19.48
2023-02-05T15:43:06.293Z,20.80
2023-02-05T15:45:55.620Z,20.85
2023-02-05T15:48:40.641Z,20.80
2023-02-05T15:51:41.614Z,20.83
2023-02-05T15:54:29.250Z,22.90
2023-02-05T15:57:30.327Z,21.60
2023-02-05T16:00:17.708Z,23.10
2023-02-05T16:03:11.410Z,23.90
2023-02-05T16:06:00.644Z,22.60
2023-02-05T16:08:55.266Z,23.02
2023-02-05T16:11:50.314Z,23.75
2023-02-05T16:14:38.589Z,23.40
2023-02-05T16:17:29.212Z,24.10
2023-02-05T16:20:39.333Z,23.50
2023-02-05T16:23:54.322Z,23.67
2023-02-05T16:26:53.537Z,23.67
2023-02-05T16:29:48.078Z,22.90
2023-02-05T16:32:45.237Z,23.20
2023-02-05T16:35:56.598Z,23.48
2023-02-05T16:38:45.290Z,24.05
2023-02-05T16:41:37.539Z,25.45
2023-02-05T16:44:39.278Z,24.42
2023-02-05T16:47:25.603Z,24.92
2023-02-05T16:50:46.673Z,25.13
2023-02-05T16:53:45.751Z,26.25
2023-02-05T16:56:43.288Z,27.92
2023-02-05T16:59:30.075Z,30.65
2023-02-05T17:02:36.322Z,32.20
2023-02-05T17:05:35.137Z,30.58
2023-02-05T17:08:24.290Z,31.17
2023-02-05T17:11:13.064Z,32.22
2023-02-05T17:14:30.632Z,30.77
2023-02-05T17:17:26.692Z,30.45
2023-02-05T17:20:31.427Z,29.83
2023-02-05T17:23:25.586Z,30.23
2023-02-05T17:26:08.381Z,29.48
2023-02-05T17:29:15.114Z,30.25
2023-02-05T17:31:58.277Z,29.25
2023-02-05T17:34:46.666Z,29.40
2023-02-05T17:37:29.374Z,30.20
2023-02-05T17:40:20.705Z,31.38
2023-02-05T17:43:03.313Z,31.75
2023-02-05T17:45:51.589Z,31.83
2023-02-05T17:48:33.268Z,31.33
2023-02-05T17:51:27.684Z,35.00
2023-02-05T17:54:10.654Z,34.10
2023-02-05T17:57:03.030Z,34.53
2023-02-05T18:00:32.401Z,33.50
2023-02-05T18:03:14.665Z,31.30
2023-02-05T18:06:03.320Z,34.20
2023-02-05T18:08:53.649Z,31.48
2023-02-05T18:11:36.272Z,34.65
2023-02-05T18:14:26.173Z,33.25
2023-02-05T18:17:09.230Z,32.35
2023-02-05T18:20:04.260Z,33.88
2023-02-05T18:22:52.688Z,31.55
2023-02-05T18:25:35.248Z,32.95
2023-02-05T18:28:24.555Z,33.42
2023-02-05T18:31:14.414Z,30.48
2023-02-05T18:34:02.646Z,30.95
2023-02-05T18:36:45.257Z,30.73
2023-02-05T18:39:34.584Z,31.07
2023-02-05T18:42:19.320Z,32.53
2023-02-05T18:45:09.598Z,32.10
2023-02-05T18:47:52.271Z,33.75
2023-02-05T18:50:40.602Z,32.92
2023-02-05T18:53:23.308Z,34.50
2023-02-05T18:56:17.437Z,35.40
2023-02-05T18:59:11.542Z,37.80
2023-02-05T19:02:00.681Z,44.45
2023-02-05T19:04:43.212Z,45.50
2023-02-05T19:07:32.603Z,45.22
2023-02-05T19:10:15.282Z,43.08
2023-02-05T19:13:05.880Z,42.10
2023-02-05T19:15:48.361Z,45.78
2023-02-05T19:18:36.506Z,45.83
2023-02-05T19:21:29.870Z,43.95
2023-02-05T19:24:12.519Z,43.85
2023-02-05T19:27:04.242Z,44.92
2023-02-05T19:29:47.623Z,45.40
2023-02-05T19:32:36.202Z,45.83
2023-02-05T19:35:18.710Z,49.15
2023-02-05T19:38:07.295Z,48.28
2023-02-05T19:40:49.582Z,46.95
2023-02-05T19:43:39.318Z,46.35
2023-02-05T19:46:21.574Z,44.53
2023-02-05T19:49:19.366Z,40.50
2023-02-05T19:52:02.976Z,39.70
2023-02-05T19:54:52.363Z,39.13
2023-02-05T19:57:35.640Z,37.00
2023-02-05T20:00:24.319Z,37.88
2023-02-05T20:03:08.390Z,36.53
2023-02-05T20:05:57.188Z,35.70
2023-02-05T20:08:39.570Z,32.45
2023-02-05T20:11:28.235Z,32.67
2023-02-05T20:14:11.324Z,31.40
2023-02-05T20:17:01.249Z,33.28
2023-02-05T20:20:10.321Z,33.08
2023-02-05T20:23:02.198Z,31.85
2023-02-05T20:25:44.528Z,33.03
2023-02-05T20:28:35.245Z,33.67
2023-02-05T20:31:42.324Z,33.53
2023-02-05T20:34:27.523Z,33.28
2023-02-05T20:37:20.254Z,33.05
2023-02-05T20:40:09.600Z,34.05
2023-02-05T20:42:54.500Z,34.15
2023-02-05T20:45:44.862Z,33.40
2023-02-05T20:48:26.684Z,32.63
2023-02-05T20:51:20.566Z,32.05
2023-02-05T20:54:06.572Z,32.60
2023-02-05T20:56:57.208Z,34.30
2023-02-05T20:59:48.277Z,34.28
2023-02-05T21:02:37.377Z,33.45
2023-02-05T21:05:20.526Z,34.50
2023-02-05T21:08:09.238Z,34.92
2023-02-05T21:10:51.577Z,36.58
2023-02-05T21:13:40.214Z,35.53
2023-02-05T21:16:25.622Z,34.42
2023-02-05T21:19:16.246Z,32.95
2023-02-05T21:22:11.034Z,32.47
2023-02-05T21:25:00.212Z,30.98
2023-02-05T21:27:42.733Z,30.33
2023-02-05T21:30:31.249Z,29.05
2023-02-05T21:33:20.248Z,27.27
2023-02-05T21:36:13.166Z,26.20
2023-02-05T21:39:02.566Z,28.13
2023-02-05T21:41:53.618Z,25.17
2023-02-05T21:44:36.555Z,26.48
2023-02-05T21:47:25.338Z,26.15
2023-02-05T21:50:08.497Z,25.85
2023-02-05T21:52:57.286Z,24.55
2023-02-05T21:55:40.451Z,25.00
2023-02-05T21:58:29.234Z,24.27
2023-02-05T22:01:22.620Z,23.95
2023-02-05T22:04:23.265Z,23.40
2023-02-05T22:07:05.431Z,25.58
2023-02-05T22:09:54.214Z,23.77
2023-02-05T22:12:36.543Z,24.35
2023-02-05T22:15:26.213Z,24.95
2023-02-05T22:18:08.520Z,26.75
2023-02-05T22:20:57.162Z,27.13
2023-02-05T22:23:39.520Z,30.00
2023-02-05T22:26:31.213Z,32.72
2023-02-05T22:29:22.234Z,32.53
2023-02-05T22:32:11.259Z,33.90
2023-02-05T22:34:53.976Z,35.38
2023-02-05T22:37:44.237Z,39.60
2023-02-05T22:40:27.635Z,38.20
2023-02-05T22:43:16.199Z,38.08
2023-02-05T22:45:58.562Z,37.60
2023-02-05T22:48:49.177Z,39.47
2023-02-05T22:51:41.584Z,39.58
2023-02-05T22:54:30.178Z,38.65
2023-02-05T22:57:12.563Z,38.53
2023-02-05T23:00:02.161Z,40.78
2023-02-05T23:02:44.506Z,39.92
2023-02-05T23:05:34.656Z,39.22
2023-02-05T23:08:17.520Z,40.17
2023-02-05T23:11:12.199Z,41.03
2023-02-05T23:13:54.488Z,38.40
2023-02-05T23:16:46.386Z,39.45
2023-02-05T23:19:29.544Z,42.63
2023-02-05T23:22:18.274Z,42.75
2023-02-05T23:25:01.566Z,40.80
2023-02-05T23:27:50.209Z,41.25
2023-02-05T23:30:32.462Z,39.78
2023-02-05T23:33:21.246Z,40.00
2023-02-05T23:36:03.513Z,39.67
2023-02-05T23:38:52.167Z,40.53
2023-02-05T23:41:45.073Z,41.88
2023-02-05T23:44:34.260Z,41.58
2023-02-05T23:47:16.528Z,42.63
2023-02-05T23:50:05.279Z,42.00
2023-02-05T23:52:47.516Z,41.35
2023-02-05T23:55:36.420Z,41.42
2023-02-05T23:58:26.445Z,42.25
